createdAt,value
2023-03-28T00:00:57.132Z,48.14
2023-03-28T00:02:58.726Z,48.66
2023-03-28T00:05:00.389Z,48.47
2023-03-28T00:07:02.247Z,48.71
2023-03-28T00:09:03.922Z,48.63
2023-03-28T00:11:07.943Z,48.57
2023-03-28T00:13:10.415Z,48.76
2023-03-28T00:15:13.457Z,48.43
2023-03-28T00:17:15.256Z,48.18
2023-03-28T00:19:19.204Z,48.62
2023-03-28T00:21:25.353Z,48.58
2023-03-28T00:23:27.080Z,48.39
2023-03-28T00:25:28.894Z,48.59
2023-03-28T00:27:30.586Z,48.83
2023-03-28T00:29:32.217Z,49.02
2023-03-28T00:31:37.750Z,48.38
2023-03-28T00:33:39.633Z,48.97
2023-03-28T00:35:41.324Z,49.29
2023-03-28T00:37:42.903Z,48.95
2023-03-28T00:39:44.569Z,48.18
2023-03-28T00:41:46.258Z,47.76
2023-03-28T00:43:50.314Z,48.51
2023-03-28T00:46:02.713Z,48.93
2023-03-28T00:48:15.141Z,48.36
2023-03-28T00:50:20.654Z,48.92
2023-03-28T00:52:25.163Z,48.75
2023-03-28T00:54:30.559Z,48.85
2023-03-28T00:56:36.339Z,48.75
2023-03-28T00:58:41.535Z,49.02
2023-03-28T01:00:44.064Z,49.38
2023-03-28T01:02:49.804Z,49.43
2023-03-28T01:04:57.918Z,49.67
2023-03-28T01:06:59.808Z,49.54
2023-03-28T01:09:06.105Z,49.57
2023-03-28T01:11:08.930Z,49.98
2023-03-28T01:13:13.176Z,49.40
2023-03-28T01:15:14.752Z,49.88
2023-03-28T01:17:16.419Z,49.63
2023-03-28T01:19:33.044Z,50.24
2023-03-28T01:21:59.375Z,49.87
2023-03-28T01:24:42.404Z,50.61
2023-03-28T01:26:49.324Z,50.79
2023-03-28T01:29:35.299Z,50.40
2023-03-28T01:32:15.938Z,50.54
2023-03-28T01:34:43.344Z,50.79
2023-03-28T01:37:13.838Z,51.11
2023-03-28T01:39:19.642Z,51.04
2023-03-28T01:41:30.187Z,51.45
2023-03-28T01:43:41.232Z,51.57
2023-03-28T01:45:55.367Z,51.09
2023-03-28T01:48:05.189Z,50.81
2023-03-28T01:50:13.918Z,50.85
2023-03-28T01:52:23.212Z,51.07
2023-03-28T01:54:32.561Z,50.90
2023-03-28T01:56:42.216Z,51.03
2023-03-28T01:58:49.163Z,50.75
2023-03-28T02:00:56.323Z,51.01
2023-03-28T02:03:03.455Z,50.99
2023-03-28T02:05:08.888Z,51.08
2023-03-28T02:07:11.621Z,51.05
2023-03-28T02:09:16.491Z,51.32
2023-03-28T02:11:18.291Z,51.46
2023-03-28T02:13:24.395Z,51.40
2023-03-28T02:15:28.979Z,50.93
2023-03-28T02:17:34.841Z,51.05
2023-03-28T02:19:38.562Z,50.58
2023-03-28T02:21:45.341Z,51.46
2023-03-28T02:23:50.637Z,51.47
2023-03-28T02:25:53.663Z,51.41
2023-03-28T02:27:59.075Z,51.37
2023-03-28T02:30:01.210Z,51.90
2023-03-28T02:32:06.185Z,51.21
2023-03-28T02:34:09.046Z,51.46
2023-03-28T02:36:45.353Z,51.63
2023-03-28T02:38:57.739Z,51.28
2023-03-28T02:41:12.260Z,51.28
2023-03-28T02:43:56.311Z,51.21
2023-03-28T02:46:11.602Z,50.73
2023-03-28T02:48:28.648Z,50.87
2023-03-28T02:50:36.605Z,51.31
2023-03-28T02:52:44.876Z,51.09
2023-03-28T02:54:51.393Z,51.25
2023-03-28T02:57:01.780Z,51.68
2023-03-28T02:59:09.244Z,51.69
2023-03-28T03:01:10.894Z,52.05
2023-03-28T03:03:16.398Z,51.69
2023-03-28T03:05:19.369Z,51.37
2023-03-28T03:07:20.902Z,51.88
2023-03-28T03:09:22.518Z,51.88
2023-03-28T03:11:24.103Z,52.43
2023-03-28T03:13:27.000Z,52.65
2023-03-28T03:15:28.641Z,52.33
2023-03-28T03:17:30.198Z,52.86
2023-03-28T03:19:31.967Z,52.02
2023-03-28T03:21:33.523Z,52.12
2023-03-28T03:23:35.268Z,52.17
2023-03-28T03:25:36.821Z,52.30
2023-03-28T03:27:38.485Z,52.46
2023-03-28T03:29:41.517Z,52.20
2023-03-28T03:31:43.178Z,51.86
2023-03-28T03:33:44.999Z,52.10
2023-03-28T03:35:46.652Z,51.93
2023-03-28T03:37:48.572Z,52.05
2023-03-28T03:39:50.184Z,52.75
2023-03-28T03:41:51.752Z,52.23
2023-03-28T03:43:53.301Z,52.02
2023-03-28T03:45:56.602Z,52.24
2023-03-28T03:47:58.251Z,52.16
2023-03-28T03:49:59.831Z,52.53
2023-03-28T03:52:01.464Z,52.01
2023-03-28T03:54:03.065Z,51.85
2023-03-28T03:56:05.241Z,52.01
2023-03-28T03:58:07.062Z,52.20
2023-03-28T04:00:09.619Z,51.72
2023-03-28T04:02:12.615Z,51.49
2023-03-28T04:04:14.289Z,51.10
2023-03-28T04:06:18.653Z,51.75
2023-03-28T04:08:20.354Z,51.81
2023-03-28T04:10:21.898Z,51.38
2023-03-28T04:12:23.465Z,51.77
2023-03-28T04:14:25.011Z,52.06
2023-03-28T04:16:27.372Z,52.08
2023-03-28T04:18:43.652Z,51.77
2023-03-28T04:20:47.116Z,52.32
2023-03-28T04:22:48.650Z,51.69
2023-03-28T04:24:57.241Z,52.10
2023-03-28T04:26:58.739Z,51.99
2023-03-28T04:29:00.311Z,51.99
2023-03-28T04:31:02.277Z,51.94
2023-03-28T04:33:03.981Z,52.10
2023-03-28T04:35:08.448Z,51.73
2023-03-28T04:37:10.019Z,51.87
2023-03-28T04:39:11.628Z,52.30
2023-03-28T04:41:13.327Z,51.81
2023-03-28T04:43:14.911Z,52.29
2023-03-28T04:45:18.006Z,52.34
2023-03-28T04:47:19.851Z,52.27
2023-03-28T04:49:21.431Z,51.78
2023-03-28T04:51:24.285Z,52.07
2023-03-28T04:53:25.924Z,52.39
2023-03-28T04:55:30.603Z,52.38
2023-03-28T04:57:32.296Z,52.69
2023-03-28T04:59:33.901Z,52.21
2023-03-28T05:01:35.573Z,52.34
2023-03-28T05:03:37.926Z,51.51
2023-03-28T05:05:39.494Z,51.52
2023-03-28T05:07:42.383Z,51.75
2023-03-28T05:09:43.924Z,51.63
2023-03-28T05:11:45.606Z,52.09
2023-03-28T05:13:47.109Z,51.76
2023-03-28T05:15:48.901Z,51.70
2023-03-28T05:17:50.545Z,52.67
2023-03-28T05:19:52.122Z,52.43
2023-03-28T05:21:53.668Z,52.12
2023-03-28T05:23:56.512Z,52.58
2023-03-28T05:25:58.075Z,52.93
2023-03-28T05:28:00.186Z,52.89
2023-03-28T05:30:01.747Z,53.30
2023-03-28T05:32:03.793Z,53.21
2023-03-28T05:34:05.331Z,53.39
2023-03-28T05:36:08.013Z,53.00
2023-03-28T05:38:09.683Z,53.46
2023-03-28T05:40:13.725Z,53.17
2023-03-28T05:42:16.109Z,52.82
2023-03-28T05:44:18.921Z,52.98
2023-03-28T05:46:20.737Z,53.19
2023-03-28T05:48:22.399Z,53.35
2023-03-28T05:50:26.737Z,52.94
2023-03-28T05:52:28.316Z,52.98
2023-03-28T05:54:29.951Z,52.54
2023-03-28T05:56:32.878Z,52.45
2023-03-28T05:58:34.446Z,53.07
2023-03-28T06:00:36.129Z,53.20
2023-03-28T06:02:38.215Z,52.55
2023-03-28T06:04:40.057Z,52.64
2023-03-28T06:06:41.857Z,52.72
2023-03-28T06:08:43.369Z,52.54
2023-03-28T06:10:44.902Z,52.80
2023-03-28T06:12:47.954Z,52.73
2023-03-28T06:14:49.473Z,52.68
2023-03-28T06:16:51.082Z,52.58
2023-03-28T06:18:52.646Z,52.61
2023-03-28T06:21:12.365Z,52.72
2023-03-28T06:23:13.905Z,52.95
2023-03-28T06:25:15.634Z,53.03
2023-03-28T06:27:17.311Z,52.91
2023-03-28T06:29:20.352Z,53.12
2023-03-28T06:31:22.111Z,52.99
2023-03-28T06:33:23.914Z,52.90
2023-03-28T06:35:25.684Z,53.03
2023-03-28T06:37:27.546Z,53.14
2023-03-28T06:39:29.247Z,53.11
2023-03-28T06:41:30.888Z,53.24
2023-03-28T06:43:35.676Z,53.16
2023-03-28T06:45:40.281Z,53.12
2023-03-28T06:47:42.069Z,53.74
2023-03-28T06:49:43.934Z,53.25
2023-03-28T06:51:45.586Z,53.50
2023-03-28T06:53:47.328Z,53.41
2023-03-28T06:55:49.842Z,53.39
2023-03-28T06:57:51.520Z,53.06
2023-03-28T06:59:53.341Z,53.12
2023-03-28T07:01:56.444Z,53.41
2023-03-28T07:03:58.264Z,52.94
2023-03-28T07:06:04.564Z,52.87
2023-03-28T07:08:10.312Z,53.55
2023-03-28T07:10:12.054Z,53.22
2023-03-28T07:12:13.626Z,53.03
2023-03-28T07:14:15.424Z,52.60
2023-03-28T07:16:17.546Z,52.72
2023-03-28T07:18:23.419Z,52.26
2023-03-28T07:20:26.035Z,52.22
2023-03-28T07:22:27.877Z,51.49
2023-03-28T07:24:29.550Z,51.42
2023-03-28T07:26:31.212Z,51.64
2023-03-28T07:28:33.436Z,51.43
2023-03-28T07:30:35.179Z,50.99
2023-03-28T07:32:50.435Z,51.05
2023-03-28T07:34:57.906Z,50.75
2023-03-28T07:36:59.517Z,49.73
2023-03-28T07:39:01.089Z,49.90
2023-03-28T07:41:02.833Z,49.24
2023-03-28T07:43:04.649Z,50.02
2023-03-28T07:45:07.596Z,50.05
2023-03-28T07:47:10.118Z,48.98
2023-03-28T07:49:11.724Z,49.19
2023-03-28T07:51:15.404Z,47.63
2023-03-28T07:53:16.961Z,48.07
2023-03-28T07:55:18.673Z,47.68
2023-03-28T07:57:20.418Z,46.60
2023-03-28T07:59:22.140Z,47.30
2023-03-28T08:01:23.876Z,47.47
2023-03-28T08:03:25.630Z,46.56
2023-03-28T08:05:27.467Z,46.30
2023-03-28T08:07:30.439Z,47.21
2023-03-28T08:09:32.152Z,47.30
2023-03-28T08:11:34.494Z,46.32
2023-03-28T08:13:36.093Z,46.29
2023-03-28T08:15:37.812Z,44.78
2023-03-28T08:17:39.537Z,45.78
2023-03-28T08:19:41.303Z,44.29
2023-03-28T08:21:43.014Z,44.59
2023-03-28T08:23:46.016Z,42.99
2023-03-28T08:25:47.698Z,44.86
2023-03-28T08:27:49.430Z,43.47
2023-03-28T08:29:51.019Z,43.89
2023-03-28T08:31:53.024Z,43.62
2023-03-28T08:33:55.946Z,45.00
2023-03-28T08:35:57.567Z,43.78
2023-03-28T08:37:59.534Z,44.12
2023-03-28T08:40:02.625Z,42.43
2023-03-28T08:42:50.123Z,42.32
2023-03-28T08:45:05.890Z,43.96
2023-03-28T08:47:14.577Z,43.03
2023-03-28T08:49:18.199Z,44.95
2023-03-28T08:51:25.062Z,43.56
2023-03-28T08:53:30.834Z,42.68
2023-03-28T08:55:37.367Z,42.08
2023-03-28T08:57:41.046Z,42.11
2023-03-28T08:59:50.218Z,42.21
2023-03-28T09:01:52.094Z,41.75
2023-03-28T09:03:53.868Z,41.11
2023-03-28T09:06:03.708Z,40.11
2023-03-28T09:08:26.928Z,40.76
2023-03-28T09:10:37.396Z,40.11
2023-03-28T09:12:52.415Z,39.44
2023-03-28T09:15:14.777Z,39.41
2023-03-28T09:17:23.699Z,39.21
2023-03-28T09:19:47.304Z,39.68
2023-03-28T09:22:14.906Z,39.15
2023-03-28T09:24:41.155Z,39.88
2023-03-28T09:26:49.349Z,38.78
2023-03-28T09:28:57.105Z,37.84
2023-03-28T09:30:59.615Z,37.37
2023-03-28T09:33:06.778Z,38.43
2023-03-28T09:35:15.755Z,38.61
2023-03-28T09:39:48.051Z,37.35
2023-03-28T09:41:56.326Z,36.28
2023-03-28T09:44:01.381Z,37.24
2023-03-28T09:46:05.403Z,36.66
2023-03-28T09:48:19.909Z,36.33
2023-03-28T09:50:22.074Z,36.00
2023-03-28T09:52:23.766Z,38.24
2023-03-28T09:54:29.207Z,36.94
2023-03-28T09:56:35.734Z,36.25
2023-03-28T09:58:52.837Z,35.71
2023-03-28T10:00:54.968Z,35.30
2023-03-28T10:02:56.876Z,34.83
2023-03-28T10:04:58.809Z,35.33
2023-03-28T10:07:33.034Z,32.72
2023-03-28T10:09:34.911Z,32.71
2023-03-28T10:11:47.228Z,31.46
2023-03-28T10:13:51.860Z,33.97
2023-03-28T10:15:55.980Z,34.11
2023-03-28T10:17:59.994Z,34.03
2023-03-28T10:20:06.834Z,33.43
2023-03-28T10:22:14.027Z,31.61
2023-03-28T10:24:20.358Z,32.34
2023-03-28T10:26:25.235Z,31.71
2023-03-28T10:28:31.066Z,30.80
2023-03-28T10:30:37.623Z,29.87
2023-03-28T10:32:40.212Z,31.78
2023-03-28T10:34:42.135Z,31.54
2023-03-28T10:36:43.897Z,30.82
2023-03-28T10:38:47.620Z,31.73
2023-03-28T10:40:52.929Z,30.12
2023-03-28T10:42:56.373Z,30.50
2023-03-28T10:45:02.543Z,28.69
2023-03-28T10:47:08.947Z,28.37
2023-03-28T10:49:15.470Z,28.77
2023-03-28T10:51:20.478Z,27.03
2023-03-28T10:53:32.212Z,27.74
2023-03-28T10:55:37.540Z,27.63
2023-03-28T10:57:51.557Z,25.55
2023-03-28T11:00:02.091Z,26.52
2023-03-28T11:02:27.491Z,25.30
2023-03-28T11:04:54.359Z,26.70
2023-03-28T11:07:05.154Z,24.49
2023-03-28T11:09:15.901Z,25.67
2023-03-28T11:11:50.378Z,24.99
2023-03-28T11:14:00.345Z,25.14
2023-03-28T11:16:11.177Z,24.77
2023-03-28T11:18:26.134Z,24.32
2023-03-28T11:20:43.001Z,23.73
2023-03-28T11:23:05.094Z,23.26
2023-03-28T11:25:19.049Z,25.62
2023-03-28T11:27:29.343Z,24.51
2023-03-28T11:29:43.603Z,22.15
2023-03-28T11:31:52.138Z,22.68
2023-03-28T11:34:00.739Z,24.06
2023-03-28T11:36:07.500Z,21.99
2023-03-28T11:38:14.887Z,24.31
2023-03-28T11:40:23.626Z,22.29
2023-03-28T11:42:30.835Z,22.24
2023-03-28T11:44:36.806Z,21.59
2023-03-28T11:46:44.985Z,22.90
2023-03-28T11:48:52.131Z,22.12
2023-03-28T11:51:02.701Z,23.30
2023-03-28T11:53:09.611Z,23.48
2023-03-28T11:55:17.831Z,22.31
2023-03-28T11:57:24.877Z,22.17
2023-03-28T11:59:35.111Z,21.76
2023-03-28T12:01:41.019Z,23.01
2023-03-28T12:03:54.675Z,22.60
2023-03-28T12:06:05.231Z,22.78
2023-03-28T12:08:12.128Z,22.26
2023-03-28T12:10:20.828Z,20.61
2023-03-28T12:12:27.597Z,22.84
2023-03-28T12:14:36.993Z,21.77
2023-03-28T12:16:44.079Z,22.23
2023-03-28T12:18:49.657Z,22.95
2023-03-28T12:20:57.872Z,21.92
2023-03-28T12:23:04.520Z,22.66
2023-03-28T12:25:12.565Z,23.97
2023-03-28T12:27:23.211Z,23.30
2023-03-28T12:29:31.586Z,23.66
2023-03-28T12:31:41.532Z,22.29
2023-03-28T12:33:52.715Z,22.62
2023-03-28T12:36:00.730Z,23.46
2023-03-28T12:38:17.680Z,23.46
2023-03-28T12:40:28.977Z,23.19
2023-03-28T12:42:31.163Z,24.55
2023-03-28T12:44:42.229Z,24.81
2023-03-28T12:46:50.203Z,25.54
2023-03-28T12:48:58.550Z,25.12
2023-03-28T12:51:05.395Z,24.75
2023-03-28T12:53:12.495Z,25.12
2023-03-28T12:55:45.276Z,25.04
2023-03-28T12:57:48.553Z,25.70
2023-03-28T13:00:12.185Z,25.01
2023-03-28T13:02:18.464Z,25.90
2023-03-28T13:04:41.871Z,24.80
2023-03-28T13:06:48.572Z,26.67
2023-03-28T13:09:05.417Z,26.30
2023-03-28T13:11:11.981Z,26.88
2023-03-28T13:13:23.386Z,27.21
2023-03-28T13:15:29.085Z,27.25
2023-03-28T13:17:31.784Z,26.03
2023-03-28T13:19:50.200Z,25.18
2023-03-28T13:21:56.307Z,25.89
2023-03-28T13:24:00.194Z,24.68
2023-03-28T13:26:03.784Z,25.14
2023-03-28T13:28:28.025Z,25.53
2023-03-28T13:30:31.832Z,25.67
2023-03-28T13:32:37.327Z,25.38
2023-03-28T13:34:39.084Z,27.45
2023-03-28T13:36:50.361Z,26.35
2023-03-28T13:39:06.574Z,28.21
2023-03-28T13:41:08.707Z,26.31
2023-03-28T13:43:23.301Z,25.99
2023-03-28T13:45:25.634Z,27.30
2023-03-28T13:47:33.063Z,27.04
2023-03-28T13:49:43.583Z,26.73
2023-03-28T13:51:48.914Z,26.96
2023-03-28T13:53:50.528Z,25.04
2023-03-28T13:56:14.713Z,24.34
2023-03-28T13:58:18.596Z,25.90
2023-03-28T14:00:24.111Z,25.95
2023-03-28T14:02:35.991Z,25.11
2023-03-28T14:04:38.021Z,25.25
2023-03-28T14:06:41.103Z,25.32
2023-03-28T14:08:45.719Z,26.98
2023-03-28T14:10:48.950Z,26.71
2023-03-28T14:12:53.311Z,26.39
2023-03-28T14:14:57.754Z,26.87
2023-03-28T14:17:01.585Z,25.99
2023-03-28T14:19:04.664Z,26.49
2023-03-28T14:21:07.293Z,26.93
2023-03-28T14:23:27.405Z,25.77
2023-03-28T14:25:30.623Z,26.27
2023-03-28T14:27:38.053Z,26.69
2023-03-28T14:29:53.107Z,26.65
2023-03-28T14:31:55.239Z,25.88
2023-03-28T14:33:57.021Z,25.31
2023-03-28T14:36:00.421Z,24.84
2023-03-28T14:38:05.143Z,24.95
2023-03-28T14:40:28.352Z,25.39
2023-03-28T14:42:30.172Z,26.64
2023-03-28T14:44:36.648Z,27.10
2023-03-28T14:46:40.149Z,26.43
2023-03-28T14:48:42.333Z,26.07
2023-03-28T14:50:45.804Z,26.05
2023-03-28T14:52:48.254Z,26.39
2023-03-28T14:54:50.633Z,25.40
2023-03-28T14:56:52.449Z,27.08
2023-03-28T14:58:58.136Z,25.80
2023-03-28T15:01:02.142Z,26.07
2023-03-28T15:03:10.548Z,26.45
2023-03-28T15:05:15.680Z,26.25
2023-03-28T15:07:22.433Z,26.73
2023-03-28T15:09:28.812Z,26.06
2023-03-28T15:11:33.782Z,26.38
2023-03-28T15:13:37.275Z,26.83
2023-03-28T15:15:44.194Z,26.22
2023-03-28T15:17:46.658Z,26.27
2023-03-28T15:19:54.279Z,29.39
2023-03-28T15:22:00.049Z,29.73
2023-03-28T15:24:04.332Z,27.54
2023-03-28T15:26:12.735Z,28.22
2023-03-28T15:28:17.548Z,27.98
2023-03-28T15:30:20.481Z,27.94
2023-03-28T15:32:22.394Z,27.91
2023-03-28T15:34:26.130Z,28.27
2023-03-28T15:36:32.158Z,27.76
2023-03-28T15:38:38.008Z,27.74
2023-03-28T15:40:41.100Z,27.84
2023-03-28T15:42:48.342Z,27.77
2023-03-28T15:45:11.588Z,27.99
2023-03-28T15:47:21.304Z,28.26
2023-03-28T15:49:24.449Z,28.85
2023-03-28T15:51:27.551Z,28.05
2023-03-28T15:53:31.326Z,27.89
2023-03-28T15:55:34.678Z,28.97
2023-03-28T15:57:36.740Z,29.47
2023-03-28T15:59:42.721Z,29.41
2023-03-28T16:01:44.416Z,30.27
2023-03-28T16:03:46.406Z,29.14
2023-03-28T16:05:49.874Z,29.06
2023-03-28T16:07:51.990Z,28.79
2023-03-28T16:09:55.028Z,29.41
2023-03-28T16:11:59.746Z,29.72
2023-03-28T16:14:01.718Z,29.54
2023-03-28T16:16:05.107Z,29.56
2023-03-28T16:18:06.988Z,29.36
2023-03-28T16:20:14.944Z,28.79
2023-03-28T16:22:16.749Z,30.91
2023-03-28T16:24:19.221Z,29.92
2023-03-28T16:26:22.325Z,28.82
2023-03-28T16:28:23.919Z,28.70
2023-03-28T16:30:28.206Z,28.70
2023-03-28T16:32:29.867Z,29.93
2023-03-28T16:34:31.696Z,29.43
2023-03-28T16:36:33.380Z,28.93
2023-03-28T16:38:34.991Z,29.76
2023-03-28T16:40:39.705Z,29.54
2023-03-28T16:42:42.666Z,30.09
2023-03-28T16:44:44.299Z,29.04
2023-03-28T16:46:45.924Z,29.65
2023-03-28T16:48:47.597Z,29.93
2023-03-28T16:50:53.270Z,30.77
2023-03-28T16:52:54.850Z,30.78
2023-03-28T16:54:56.432Z,31.25
2023-03-28T16:56:58.246Z,32.52
2023-03-28T16:59:01.945Z,31.33
2023-03-28T17:01:04.768Z,31.52
2023-03-28T17:03:06.560Z,32.26
2023-03-28T17:05:09.025Z,31.76
2023-03-28T17:07:11.733Z,31.13
2023-03-28T17:09:13.595Z,31.30
2023-03-28T17:11:15.704Z,31.08
2023-03-28T17:13:17.339Z,31.42
2023-03-28T17:15:20.369Z,31.13
2023-03-28T17:17:21.938Z,31.88
2023-03-28T17:19:23.572Z,32.53
2023-03-28T17:21:25.243Z,32.26
2023-03-28T17:23:27.795Z,32.29
2023-03-28T17:25:29.950Z,32.22
2023-03-28T17:27:31.675Z,32.16
2023-03-28T17:29:33.549Z,32.15
2023-03-28T17:31:36.734Z,32.29
2023-03-28T17:33:38.699Z,32.96
2023-03-28T17:35:40.418Z,33.19
2023-03-28T17:37:42.334Z,33.62
2023-03-28T17:39:43.941Z,33.71
2023-03-28T17:41:45.588Z,33.39
2023-03-28T17:43:47.238Z,33.45
2023-03-28T17:45:53.266Z,33.71
2023-03-28T17:47:56.656Z,33.64
2023-03-28T17:49:58.298Z,33.25
2023-03-28T17:51:59.978Z,33.39
2023-03-28T17:54:01.806Z,33.75
2023-03-28T17:56:03.684Z,33.48
2023-03-28T17:58:05.356Z,33.11
2023-03-28T18:00:08.237Z,33.57
2023-03-28T18:02:10.216Z,33.84
2023-03-28T18:04:13.427Z,34.03
2023-03-28T18:06:15.276Z,33.98
2023-03-28T18:08:16.854Z,34.17
2023-03-28T18:10:19.002Z,33.95
2023-03-28T18:12:20.654Z,34.28
2023-03-28T18:14:22.286Z,34.12
2023-03-28T18:16:24.398Z,34.59
2023-03-28T18:18:26.084Z,34.02
2023-03-28T18:20:29.116Z,33.91
2023-03-28T18:22:30.756Z,33.98
2023-03-28T18:24:32.484Z,33.78
2023-03-28T18:26:34.035Z,33.59
2023-03-28T18:28:35.973Z,33.63
2023-03-28T18:30:37.572Z,33.80
2023-03-28T18:32:39.247Z,34.12
2023-03-28T18:34:40.915Z,33.82
2023-03-28T18:36:43.915Z,34.12
2023-03-28T18:38:45.644Z,33.92
2023-03-28T18:40:52.680Z,34.46
2023-03-28T18:42:54.334Z,34.37
2023-03-28T18:44:55.948Z,34.36
2023-03-28T18:46:57.601Z,34.36
2023-03-28T18:48:59.588Z,34.93
2023-03-28T18:51:01.583Z,35.26
2023-03-28T18:53:04.809Z,34.46
2023-03-28T18:55:07.491Z,34.96
2023-03-28T18:57:09.118Z,34.81
2023-03-28T18:59:11.283Z,34.29
2023-03-28T19:01:13.028Z,35.24
2023-03-28T19:03:14.720Z,35.71
2023-03-28T19:05:17.125Z,35.86
2023-03-28T19:07:21.192Z,36.57
2023-03-28T19:09:24.460Z,36.14
2023-03-28T19:11:26.078Z,36.68
2023-03-28T19:13:29.391Z,37.71
2023-03-28T19:15:31.155Z,39.04
2023-03-28T19:17:33.118Z,40.22
2023-03-28T19:19:34.757Z,40.19
2023-03-28T19:21:36.245Z,40.13
2023-03-28T19:23:38.122Z,40.10
2023-03-28T19:25:40.992Z,40.48
2023-03-28T19:27:42.675Z,40.14
2023-03-28T19:29:44.239Z,39.29
2023-03-28T19:31:45.786Z,39.46
2023-03-28T19:33:47.508Z,39.86
2023-03-28T19:35:49.217Z,39.40
2023-03-28T19:37:50.820Z,39.06
2023-03-28T19:39:52.366Z,39.08
2023-03-28T19:41:55.317Z,38.72
2023-03-28T19:43:56.948Z,39.46
2023-03-28T19:46:01.680Z,37.44
2023-03-28T19:48:03.641Z,37.81
2023-03-28T19:50:06.402Z,38.06
2023-03-28T19:52:07.991Z,39.53
2023-03-28T19:54:09.639Z,38.77
2023-03-28T19:56:11.217Z,38.23
2023-03-28T19:58:14.061Z,38.90
2023-03-28T20:00:16.598Z,38.76
2023-03-28T20:02:18.077Z,39.22
2023-03-28T20:04:19.632Z,39.09
2023-03-28T20:06:22.295Z,38.07
2023-03-28T20:08:23.952Z,38.71
2023-03-28T20:10:26.009Z,40.27
2023-03-28T20:12:27.583Z,41.23
2023-03-28T20:14:30.589Z,40.86
2023-03-28T20:16:32.219Z,39.84
2023-03-28T20:18:34.044Z,39.57
2023-03-28T20:20:37.178Z,38.93
2023-03-28T20:22:38.856Z,40.59
2023-03-28T20:24:40.517Z,40.83
2023-03-28T20:26:42.274Z,43.10
2023-03-28T20:28:44.346Z,44.25
2023-03-28T20:30:53.639Z,45.15
2023-03-28T20:32:55.365Z,46.03
2023-03-28T20:34:56.961Z,45.56
2023-03-28T20:36:58.713Z,43.83
2023-03-28T20:39:00.392Z,43.71
2023-03-28T20:41:02.153Z,43.05
2023-03-28T20:43:04.000Z,41.10
2023-03-28T20:45:06.877Z,42.34
2023-03-28T20:47:10.896Z,43.53
2023-03-28T20:49:18.730Z,42.67
2023-03-28T20:51:21.308Z,42.71
2023-03-28T20:53:22.987Z,42.40
2023-03-28T20:55:24.603Z,41.70
2023-03-28T20:57:26.166Z,41.47
2023-03-28T20:59:27.694Z,41.39
2023-03-28T21:01:30.414Z,41.24
2023-03-28T21:03:33.539Z,41.35
2023-03-28T21:05:35.135Z,41.17
2023-03-28T21:07:36.751Z,41.28
2023-03-28T21:09:38.325Z,42.79
2023-03-28T21:11:40.228Z,43.28
2023-03-28T21:13:42.011Z,42.46
2023-03-28T21:15:43.792Z,43.62
2023-03-28T21:17:45.365Z,44.55
2023-03-28T21:19:48.339Z,44.35
2023-03-28T21:21:49.919Z,44.58
2023-03-28T21:23:51.516Z,45.21
2023-03-28T21:25:53.070Z,43.83
2023-03-28T21:27:54.695Z,43.80
2023-03-28T21:29:57.464Z,43.30
2023-03-28T21:31:59.111Z,43.56
2023-03-28T21:34:00.689Z,43.32
2023-03-28T21:36:04.623Z,41.80
2023-03-28T21:38:06.226Z,41.21
2023-03-28T21:40:08.887Z,41.35
2023-03-28T21:42:10.440Z,42.08
2023-03-28T21:44:12.244Z,41.02
2023-03-28T21:46:13.996Z,41.76
2023-03-28T21:48:16.276Z,42.23
2023-03-28T21:50:18.199Z,42.22
2023-03-28T21:52:21.175Z,42.04
2023-03-28T21:54:22.747Z,41.68
2023-03-28T21:56:24.407Z,41.83
2023-03-28T21:58:28.344Z,42.66
2023-03-28T22:00:30.115Z,42.58
2023-03-28T22:02:32.116Z,43.54
2023-03-28T22:04:34.007Z,43.80
2023-03-28T22:06:35.749Z,43.73
2023-03-28T22:08:39.154Z,44.79
2023-03-28T22:10:44.930Z,43.75
2023-03-28T22:12:46.551Z,45.12
2023-03-28T22:14:48.338Z,45.41
2023-03-28T22:16:49.976Z,46.63
2023-03-28T22:18:51.532Z,46.12
2023-03-28T22:20:53.636Z,47.68
2023-03-28T22:22:55.315Z,43.90
2023-03-28T22:24:58.290Z,46.44
2023-03-28T22:26:59.950Z,46.46
2023-03-28T22:29:01.634Z,47.95
2023-03-28T22:31:03.414Z,49.39
2023-03-28T22:33:07.745Z,47.65
2023-03-28T22:35:09.706Z,48.72
2023-03-28T22:37:11.244Z,50.01
2023-03-28T22:39:12.822Z,52.14
2023-03-28T22:41:16.087Z,49.66
2023-03-28T22:43:17.538Z,50.66
2023-03-28T22:45:19.213Z,50.70
2023-03-28T22:47:20.710Z,49.45
2023-03-28T22:49:22.299Z,49.32
2023-03-28T22:51:24.593Z,47.98
2023-03-28T22:53:26.792Z,49.20
2023-03-28T22:55:28.317Z,49.66
2023-03-28T22:57:31.330Z,48.38
2023-03-28T22:59:35.766Z,49.63
2023-03-28T23:01:37.361Z,49.68
2023-03-28T23:03:38.979Z,49.09
2023-03-28T23:05:40.687Z,51.28
2023-03-28T23:07:42.213Z,49.23
2023-03-28T23:09:43.857Z,48.95
2023-03-28T23:11:45.746Z,48.76
2023-03-28T23:13:48.627Z,49.42
2023-03-28T23:15:50.277Z,48.06
2023-03-28T23:17:51.971Z,49.75
2023-03-28T23:19:53.885Z,49.96
2023-03-28T23:21:55.500Z,50.13
2023-03-28T23:23:57.116Z,49.90
2023-03-28T23:25:59.186Z,49.46
2023-03-28T23:28:00.757Z,48.71
2023-03-28T23:30:04.754Z,50.28
2023-03-28T23:32:06.342Z,50.74
2023-03-28T23:34:07.985Z,49.75
2023-03-28T23:36:10.158Z,50.27
2023-03-28T23:38:11.742Z,49.95
2023-03-28T23:40:13.328Z,50.23
2023-03-28T23:42:14.962Z,50.25
2023-03-28T23:44:16.513Z,50.10
2023-03-28T23:46:19.511Z,51.35
2023-03-28T23:48:21.372Z,51.64
2023-03-28T23:50:22.924Z,50.90
2023-03-28T23:52:24.651Z,50.34
2023-03-28T23:54:26.348Z,50.56
2023-03-28T23:56:28.092Z,52.25
2023-03-28T23:58:29.750Z,51.12
